Time;durP1;ratioP1;P1;durP2;ratioP2;P2;SDS_P1;SDS_P2;PMS_P1;PMS_P2;Temp;Humidity;BMP_temperature;BMP_pressure;BME280_temperature;BME280_humidity;BME280_pressure;Samples;Min_cycle;Max_cycle;Signal;HPM_P1;HPM_P2
2023/08/25 00:03:06;;;;;;;;;;;22.40;73.50;;;21.64;62.86;99145.59;10368679;28;913;-71
2023/08/25 00:08:01;;;;;;;;;;;22.40;73.50;;;21.64;62.84;99143.84;10369438;28;851;-71
2023/08/25 00:12:57;;;;;;;;;;;22.40;73.40;;;21.63;62.64;99147.41;10369006;28;796;-71
2023/08/25 00:17:53;;;;;;;;;;;22.40;73.40;;;21.63;62.57;99130.66;10368805;28;856;-71
2023/08/25 00:22:48;;;;;;;;;;;22.40;73.50;;;21.62;62.85;99123.69;10367848;28;1910;-71
2023/08/25 00:27:44;;;;;;;;;;;22.40;73.40;;;21.62;62.72;99107.75;10367592;28;1148;-71
2023/08/25 00:32:39;;;;;;;;;;;22.40;73.40;;;21.62;62.58;99105.94;10368153;28;895;-70
2023/08/25 00:37:35;;;;;;;;;;;22.40;73.40;;;21.62;62.65;99095.34;10367390;28;1287;-71
2023/08/25 00:42:30;;;;;;;;;;;22.40;73.40;;;21.61;62.63;99095.44;10367750;28;1913;-71
2023/08/25 00:47:25;;;;;;;;;;;22.40;73.30;;;21.62;62.58;99090.03;10366728;28;815;-71
2023/08/25 00:52:21;;;;;;;;;;;22.40;73.30;;;21.61;62.80;99085.69;10368072;28;1005;-71
2023/08/25 00:57:16;;;;;;;;;;;22.40;73.30;;;21.61;62.73;99083.06;10366741;28;906;-70
2023/08/25 01:02:12;;;;;;;;;;;22.40;73.30;;;21.60;62.65;99084.00;10367836;28;1969;-71
2023/08/25 01:07:08;;;;;;;;;;;22.40;73.30;;;21.60;62.62;99084.00;10367544;28;942;-71
2023/08/25 01:12:04;;;;;;;;;;;22.40;73.40;;;21.60;62.73;99083.16;10367418;28;945;-70
2023/08/25 01:16:59;;;;;;;;;;;22.40;73.30;;;21.58;62.72;99083.25;10366698;28;783;-71
2023/08/25 01:21:55;;;;;;;;;;;22.40;73.20;;;21.58;62.58;99074.44;10366469;28;1910;-71
2023/08/25 01:26:50;;;;;;;;;;;22.30;73.20;;;21.58;62.65;99075.28;10366635;28;896;-71
2023/08/25 01:31:46;;;;;;;;;;;22.40;73.20;;;21.57;62.48;99065.66;10365682;28;1399;-71
2023/08/25 01:36:42;;;;;;;;;;;22.40;73.20;;;21.57;62.69;99063.00;10366080;28;895;-71
2023/08/25 01:41:38;;;;;;;;;;;22.30;73.10;;;21.56;62.62;99066.59;10366063;28;1909;-71
2023/08/25 01:46:33;;;;;;;;;;;22.40;73.20;;;21.55;62.43;99070.19;10366104;28;884;-71
2023/08/25 01:51:29;;;;;;;;;;;22.40;73.10;;;21.56;62.55;99065.72;10366602;28;909;-71
2023/08/25 01:56:24;;;;;;;;;;;22.30;73.10;;;21.55;62.65;99059.59;10365217;28;882;-71
2023/08/25 02:01:19;;;;;;;;;;;22.30;73.00;;;21.56;62.69;99058.66;10374392;28;1901;-70
2023/08/25 02:06:15;;;;;;;;;;;22.30;73.10;;;21.55;62.50;99054.28;10373939;28;957;-71
2023/08/25 02:11:10;;;;;;;;;;;22.30;73.00;;;21.54;62.58;99047.31;10373739;28;892;-71
2023/08/25 02:16:06;;;;;;;;;;;22.30;73.90;;;21.54;62.38;99047.31;10374187;28;931;-71
2023/08/25 02:21:01;;;;;;;;;;;22.30;73.10;;;21.55;62.55;99041.03;10374095;28;1971;-71
2023/08/25 02:25:56;;;;;;;;;;;22.30;73.10;;;21.55;62.58;99040.19;10373122;28;949;-71
2023/08/25 02:30:52;;;;;;;;;;;22.30;73.10;;;21.54;62.44;99033.19;10373184;28;1175;-71
2023/08/25 02:35:47;;;;;;;;;;;22.30;73.10;;;21.54;62.49;99035.84;10373361;28;818;-71
2023/08/25 02:40:42;;;;;;;;;;;22.30;73.10;;;21.53;62.63;99037.63;10372529;28;1891;-71
2023/08/25 02:45:38;;;;;;;;;;;22.30;73.10;;;21.52;62.44;99025.34;10371841;28;823;-71
2023/08/25 02:50:33;;;;;;;;;;;22.30;73.10;;;21.52;62.65;99012.09;10372235;28;946;-71
2023/08/25 02:55:29;;;;;;;;;;;22.30;73.10;;;21.54;62.72;99025.25;10371986;28;886;-70
2023/08/25 03:00:24;;;;;;;;;;;22.30;73.10;;;21.53;62.54;99012.91;10372357;28;1910;-70
2023/08/25 03:05:21;;;;;;;;;;;22.30;73.10;;;21.52;62.59;99000.63;10371627;28;814;-70
2023/08/25 03:10:17;;;;;;;;;;;22.30;73.00;;;21.53;62.54;98994.34;10370401;28;880;-71
2023/08/25 03:15:12;;;;;;;;;;;22.30;73.40;;;21.52;62.48;99000.63;10370756;28;815;-71
2023/08/25 03:20:07;;;;;;;;;;;22.30;73.10;;;21.51;62.52;98998.91;10371933;28;1910;-70
2023/08/25 03:25:03;;;;;;;;;;;22.30;73.10;;;21.51;62.60;99009.53;10370970;28;882;-71
2023/08/25 03:29:58;;;;;;;;;;;22.30;73.00;;;21.50;62.60;99006.03;10371088;28;1454;-71
2023/08/25 03:34:54;;;;;;;;;;;22.30;73.10;;;21.50;62.56;99007.84;10371046;28;880;-71
2023/08/25 03:39:49;;;;;;;;;;;22.30;73.10;;;21.50;62.47;99005.19;10370295;28;1976;-71
2023/08/25 03:44:45;;;;;;;;;;;22.30;73.00;;;21.48;62.52;99015.06;10370777;28;916;-71
2023/08/25 03:49:40;;;;;;;;;;;22.30;73.10;;;21.48;62.56;99004.44;10369949;28;993;-71
2023/08/25 03:54:35;;;;;;;;;;;22.20;73.00;;;21.48;62.75;99010.59;10369716;28;878;-70
2023/08/25 03:59:31;;;;;;;;;;;22.20;72.90;;;21.47;62.50;99000.09;10352382;28;1905;-71
2023/08/25 04:04:27;;;;;;;;;;;22.20;72.90;;;21.47;62.71;98995.66;10369488;28;1002;-71
2023/08/25 04:09:22;;;;;;;;;;;22.20;72.90;;;21.47;62.62;98992.16;10369333;28;803;-71
2023/08/25 04:14:18;;;;;;;;;;;22.20;72.90;;;21.45;62.60;98992.25;10368976;28;875;-71
2023/08/25 04:19:16;;;;;;;;;;;22.20;72.90;;;21.45;62.65;98989.59;10368641;28;1906;-71
2023/08/25 04:24:12;;;;;;;;;;;22.20;72.90;;;21.45;62.47;98992.25;10368519;28;847;-71
2023/08/25 04:29:09;;;;;;;;;;;22.20;72.90;;;21.43;62.72;98992.38;10368343;28;1232;-71
2023/08/25 04:34:07;;;;;;;;;;;22.20;72.90;;;21.44;62.46;98983.47;10368137;28;890;-70
2023/08/25 04:39:03;;;;;;;;;;;22.20;72.90;;;21.43;62.68;99000.34;10368775;28;1965;-70
2023/08/25 04:43:59;;;;;;;;;;;22.20;72.90;;;21.44;62.61;98990.56;10367808;28;929;-70
2023/08/25 04:48:54;;;;;;;;;;;22.20;72.90;;;21.44;62.61;98990.56;10368221;28;806;-70
2023/08/25 04:53:50;;;;;;;;;;;22.20;72.90;;;21.44;62.54;98987.91;10367401;28;883;-70
2023/08/25 04:58:45;;;;;;;;;;;22.20;72.90;;;21.45;62.67;98986.94;10367243;28;1972;-67
2023/08/25 05:03:42;;;;;;;;;;;22.20;73.00;;;21.43;62.66;98987.06;10366688;28;953;-68
2023/08/25 05:08:37;;;;;;;;;;;22.20;73.00;;;21.42;62.48;99000.44;10367130;28;792;-67
2023/08/25 05:13:33;;;;;;;;;;;22.20;73.00;;;21.41;62.60;98994.28;10367489;28;968;-70
2023/08/25 05:18:28;;;;;;;;;;;22.20;72.90;;;21.43;62.70;99008.28;10366184;28;1909;-67
2023/08/25 05:23:23;;;;;;;;;;;22.20;73.00;;;21.44;62.71;98993.22;10367180;28;859;-68
2023/08/25 05:28:19;;;;;;;;;;;22.20;73.00;;;21.43;62.68;98980.91;10365846;28;1092;-67
2023/08/25 05:33:14;;;;;;;;;;;22.20;73.00;;;21.42;62.30;98981.88;10366573;28;925;-67
2023/08/25 05:38:10;;;;;;;;;;;22.20;73.10;;;21.40;62.58;98986.41;10366715;28;926;-68
2023/08/25 05:43:05;;;;;;;;;;;22.10;73.00;;;21.40;62.74;98979.31;10365522;28;1972;-67
2023/08/25 05:48:01;;;;;;;;;;;22.20;73.10;;;21.42;62.63;98979.22;10366202;28;902;-67
2023/08/25 05:52:56;;;;;;;;;;;22.20;73.00;;;21.42;62.47;98985.34;10366598;28;895;-67
2023/08/25 05:57:51;;;;;;;;;;;22.10;73.00;;;21.42;62.52;98990.66;10365930;28;860;-68
2023/08/25 06:02:47;;;;;;;;;;;22.10;73.10;;;21.42;62.59;98985.34;10365740;28;1969;-67
2023/08/25 06:07:42;;;;;;;;;;;22.10;73.10;;;21.41;62.66;98973.06;10366782;28;831;-67
2023/08/25 06:12:38;;;;;;;;;;;22.10;73.00;;;21.42;62.65;98976.56;10366255;28;765;-67
2023/08/25 06:17:33;;;;;;;;;;;22.10;73.00;;;21.40;62.77;98966.06;10365538;28;931;-71
2023/08/25 06:22:28;;;;;;;;;;;22.10;73.10;;;21.42;62.73;98963.31;10365256;28;1906;-69
2023/08/25 06:27:24;;;;;;;;;;;22.10;73.10;;;21.43;62.68;98951.72;10365388;28;806;-69
2023/08/25 06:32:20;;;;;;;;;;;22.10;73.10;;;21.43;62.71;98949.09;10365295;28;1288;-70
2023/08/25 06:37:15;;;;;;;;;;;22.10;73.20;;;21.43;62.72;98951.72;10365904;28;883;-70
2023/08/25 06:42:10;;;;;;;;;;;22.10;73.20;;;21.42;62.56;98956.19;10364835;28;1910;-70
2023/08/25 06:47:07;;;;;;;;;;;22.10;73.30;;;21.41;62.58;98949.22;10371257;28;823;-70
2023/08/25 06:52:03;;;;;;;;;;;22.10;73.30;;;21.41;62.83;98957.16;10372178;28;847;-70
2023/08/25 06:56:58;;;;;;;;;;;22.10;73.40;;;21.42;62.70;98947.41;10371493;28;940;-70
2023/08/25 07:01:54;;;;;;;;;;;22.10;73.40;;;21.41;62.84;98966.94;10372369;28;1901;-70
2023/08/25 07:06:49;;;;;;;;;;;22.10;73.40;;;21.40;62.90;98958.09;10371629;28;933;-70
2023/08/25 07:11:44;;;;;;;;;;;22.10;73.40;;;21.39;62.88;98969.69;10372066;28;871;-70
2023/08/25 07:16:40;;;;;;;;;;;22.10;73.50;;;21.39;62.90;98952.94;10371905;28;784;-70
2023/08/25 07:21:35;;;;;;;;;;;22.10;73.50;;;21.39;62.94;98980.28;10371268;28;1983;-70
2023/08/25 07:26:31;;;;;;;;;;;22.10;73.50;;;21.37;62.87;98973.34;10371580;28;847;-70
2023/08/25 07:31:26;;;;;;;;;;;22.10;73.60;;;21.36;62.89;98990.22;10371061;28;1136;-70
2023/08/25 07:36:21;;;;;;;;;;;22.10;73.70;;;21.36;62.94;99011.44;10369985;28;820;-70
2023/08/25 07:41:21;;;;;;;;;;;22.10;73.70;;;21.35;63.00;98951.41;10369620;28;1898;-70
2023/08/25 07:46:16;;;;;;;;;;;22.10;73.70;;;21.35;62.84;98901.91;10370090;28;826;-70
2023/08/25 07:51:12;;;;;;;;;;;22.10;73.90;;;21.36;62.78;98905.41;10369954;28;878;-70
2023/08/25 07:56:07;;;;;;;;;;;22.10;73.70;;;21.38;62.73;98919.44;10369894;28;1183;-70
2023/08/25 08:01:03;;;;;;;;;;;22.10;73.70;;;21.38;62.90;98983.91;10369397;28;1898;-70
2023/08/25 08:05:58;;;;;;;;;;;22.10;73.70;;;21.36;63.00;99040.59;10369364;28;864;-70
2023/08/25 08:10:54;;;;;;;;;;;22.10;73.80;;;21.35;63.00;99110.47;10369408;28;864;-70
2023/08/25 08:15:49;;;;;;;;;;;22.00;73.80;;;21.32;63.16;99090.31;10368313;28;992;-70
2023/08/25 08:20:45;;;;;;;;;;;22.00;73.80;;;21.31;63.12;99095.72;10368720;28;1975;-70
2023/08/25 08:25:41;;;;;;;;;;;22.00;73.80;;;21.31;63.27;99111.63;10369166;28;860;-70
2023/08/25 08:30:37;;;;;;;;;;;22.00;73.90;;;21.31;63.26;99103.69;10368416;28;1118;-70
2023/08/25 08:35:32;;;;;;;;;;;22.00;73.90;;;21.29;63.10;99110.88;10368249;28;787;-70
2023/08/25 08:40:32;;;;;;;;;;;22.00;73.90;;;21.29;63.29;99074.63;10367938;28;1956;-70
2023/08/25 08:45:27;;;;;;;;;;;22.00;73.90;;;21.29;63.14;99089.69;10367841;28;875;-70
2023/08/25 08:50:22;;;;;;;;;;;22.00;73.90;;;21.27;63.29;99110.97;10368269;28;865;-70
2023/08/25 08:55:20;;;;;;;;;;;22.00;73.90;;;21.26;63.07;99072.19;10367374;28;930;-70
2023/08/25 09:00:18;;;;;;;;;;;22.00;74.00;;;21.28;63.17;99122.44;10367913;28;1886;-70
2023/08/25 09:05:15;;;;;;;;;;;22.00;74.00;;;21.25;63.17;99083.75;10367646;28;850;-70
2023/08/25 09:10:10;;;;;;;;;;;22.00;74.00;;;21.24;63.21;99125.28;10366301;28;872;-70
2023/08/25 09:15:06;;;;;;;;;;;21.90;74.00;;;21.24;63.18;99127.94;10366918;28;879;-70
2023/08/25 09:20:03;;;;;;;;;;;22.00;74.10;;;21.22;63.15;99018.53;10366700;28;1898;-70
2023/08/25 09:24:58;;;;;;;;;;;21.90;74.00;;;21.24;63.36;98999.88;10366655;28;818;-70
2023/08/25 09:29:53;;;;;;;;;;;21.90;74.00;;;21.24;63.21;99043.13;10366826;28;1096;-68
2023/08/25 09:34:49;;;;;;;;;;;21.90;74.00;;;21.24;63.18;99013.97;10366869;28;878;-69
2023/08/25 09:39:44;;;;;;;;;;;21.90;74.00;;;21.25;63.22;99067.84;10366238;28;1906;-69
2023/08/25 09:44:40;;;;;;;;;;;21.90;74.10;;;21.24;63.24;99044.94;10366253;28;847;-68
2023/08/25 09:49:35;;;;;;;;;;;21.90;74.10;;;21.22;63.09;99010.59;10366647;28;814;-67
2023/08/25 09:54:31;;;;;;;;;;;21.90;74.10;;;21.23;63.08;99006.13;10366566;28;922;-68
2023/08/25 09:59:27;;;;;;;;;;;21.90;74.20;;;21.23;63.14;98980.47;10364104;28;1898;-68
2023/08/25 10:04:22;;;;;;;;;;;21.90;74.20;;;21.24;63.33;98982.16;10364152;28;871;-70
2023/08/25 10:09:17;;;;;;;;;;;21.90;74.30;;;21.25;63.17;98964.47;10365562;28;786;-70
2023/08/25 10:14:13;;;;;;;;;;;21.90;74.30;;;21.23;63.28;98964.56;10365139;28;804;-68
2023/08/25 10:19:08;;;;;;;;;;;21.90;74.30;;;21.24;63.04;98976.84;10368894;28;1905;-68
2023/08/25 10:24:04;;;;;;;;;;;21.90;74.30;;;21.26;63.13;98983.88;10372922;28;856;-69
2023/08/25 10:28:59;;;;;;;;;;;21.90;74.40;;;21.24;63.18;99006.00;10373270;28;1085;-68
2023/08/25 10:33:54;;;;;;;;;;;21.90;74.50;;;21.24;63.37;99090.81;10372513;28;963;-68
2023/08/25 10:38:50;;;;;;;;;;;21.90;74.50;;;21.23;63.39;99114.81;10373162;28;1898;-68
2023/08/25 10:43:45;;;;;;;;;;;21.90;74.60;;;21.23;63.37;99125.41;10371648;28;1191;-68
2023/08/25 10:48:41;;;;;;;;;;;21.90;74.60;;;21.23;63.39;99106.84;10372980;28;827;-68
2023/08/25 10:53:37;;;;;;;;;;;21.90;74.70;;;21.22;63.42;99153.72;10371675;28;966;-68
2023/08/25 10:58:32;;;;;;;;;;;21.90;74.80;;;21.22;63.33;99200.56;10372537;28;1905;-70
2023/08/25 11:03:27;;;;;;;;;;;21.90;74.90;;;21.22;63.36;99182.00;10372376;28;838;-70
2023/08/25 11:08:24;;;;;;;;;;;21.90;74.90;;;21.22;63.31;99145.78;10371732;28;957;-72
2023/08/25 11:13:19;;;;;;;;;;;21.90;74.80;;;21.21;63.31;99138.75;10371491;28;846;-72
2023/08/25 11:18:15;;;;;;;;;;;21.90;74.90;;;21.20;63.40;99102.59;10371287;28;918;-72
2023/08/25 11:23:11;;;;;;;;;;;21.90;74.90;;;21.20;63.44;99163.56;10371671;28;1971;-71
2023/08/25 11:28:06;;;;;;;;;;;21.90;75.10;;;21.20;63.67;99187.41;10370616;28;1429;-72
2023/08/25 11:33:02;;;;;;;;;;;21.90;75.20;;;21.20;63.65;99207.78;10370586;28;1231;-72
2023/08/25 11:37:58;;;;;;;;;;;21.90;75.30;;;21.19;63.85;99191.00;10370477;28;898;-70
2023/08/25 11:42:53;;;;;;;;;;;21.90;75.60;;;21.19;63.52;99031.97;10370921;28;1914;-71
2023/08/25 11:47:49;;;;;;;;;;;21.80;75.30;;;21.23;63.48;99090.94;10369527;28;1017;-72
2023/08/25 11:52:44;;;;;;;;;;;21.90;75.50;;;21.26;63.29;99072.19;10369880;28;988;-72
2023/08/25 11:57:40;;;;;;;;;;;21.90;75.30;;;21.27;63.45;99052.66;10370320;28;795;-72
2023/08/25 12:02:35;;;;;;;;;;;21.90;75.30;;;21.25;63.63;99020.13;10369429;28;1985;-69
2023/08/25 12:07:30;;;;;;;;;;;21.90;75.40;;;21.23;63.58;99016.75;10370067;28;843;-70
2023/08/25 12:12:26;;;;;;;;;;;21.90;75.40;;;21.23;63.78;99035.28;10369030;28;869;-70
2023/08/25 12:17:22;;;;;;;;;;;21.90;75.40;;;21.23;63.45;99014.94;10369522;28;870;-70
2023/08/25 12:22:18;;;;;;;;;;;21.90;75.40;;;21.23;63.62;98980.47;10368365;28;1969;-70
2023/08/25 12:27:14;;;;;;;;;;;21.90;75.30;;;21.25;63.44;98993.63;10367881;28;1271;-70
2023/08/25 12:32:09;;;;;;;;;;;21.80;75.20;;;21.23;63.39;99009.63;10368383;28;1282;-70
2023/08/25 12:37:05;;;;;;;;;;;21.80;75.20;;;21.22;63.44;98962.88;10368116;28;898;-69
2023/08/25 12:42:04;;;;;;;;;;;21.80;75.20;;;21.24;63.64;98955.66;10367977;28;1910;-71
2023/08/25 12:46:59;;;;;;;;;;;21.80;75.10;;;21.33;63.15;98954.19;10367792;28;940;-71
2023/08/25 12:51:54;;;;;;;;;;;21.90;75.20;;;21.33;63.49;98953.34;10367690;28;862;-70
2023/08/25 12:56:51;;;;;;;;;;;21.90;75.20;;;21.35;63.47;98940.78;10367835;28;859;-70
2023/08/25 13:01:47;;;;;;;;;;;21.90;75.20;;;21.39;63.03;98940.50;10368005;28;1914;-69
2023/08/25 13:06:42;;;;;;;;;;;21.90;75.20;;;21.44;63.13;98929.59;10367491;28;911;-71
2023/08/25 13:11:38;;;;;;;;;;;21.90;75.20;;;21.44;63.19;98926.94;10366826;28;852;-70
2023/08/25 13:16:33;;;;;;;;;;;22.00;75.20;;;21.43;63.09;98928.75;10367186;28;1005;-70
2023/08/25 13:21:29;;;;;;;;;;;22.00;75.20;;;21.44;63.31;98919.81;10366060;28;1913;-71
2023/08/25 13:26:24;;;;;;;;;;;22.00;75.30;;;21.51;63.11;98933.50;10366977;28;902;-70
2023/08/25 13:31:19;;;;;;;;;;;22.00;75.20;;;21.49;63.00;98921.31;10365710;28;1222;-71
2023/08/25 13:36:16;;;;;;;;;;;22.00;75.30;;;21.45;62.96;98931.28;10366118;28;869;-70
2023/08/25 13:41:12;;;;;;;;;;;22.00;75.40;;;21.47;63.25;98939.97;10365840;28;1961;-71
2023/08/25 13:46:07;;;;;;;;;;;22.00;75.30;;;21.51;63.08;98951.19;10367095;28;929;-70
2023/08/25 13:51:03;;;;;;;;;;;22.00;75.30;;;21.43;63.29;98946.44;10366417;28;805;-70
2023/08/25 13:56:00;;;;;;;;;;;22.00;75.40;;;21.38;63.32;98935.34;10372576;28;839;-70
2023/08/25 14:00:55;;;;;;;;;;;22.00;75.50;;;21.36;63.60;98937.22;10374003;28;1991;-70
2023/08/25 14:05:50;;;;;;;;;;;21.90;75.50;;;21.39;63.46;98931.72;10375391;28;943;-71
2023/08/25 14:10:46;;;;;;;;;;;22.00;75.60;;;21.42;63.26;98905.81;10374552;28;795;-70
2023/08/25 14:15:41;;;;;;;;;;;22.00;75.50;;;21.49;63.17;98908.06;10374680;28;896;-72
2023/08/25 14:20:36;;;;;;;;;;;22.00;75.40;;;21.47;63.37;98910.81;10373544;28;1913;-71
2023/08/25 14:25:32;;;;;;;;;;;22.00;75.50;;;21.57;62.95;98911.84;10374006;28;850;-71
2023/08/25 14:30:28;;;;;;;;;;;22.00;75.30;;;21.47;63.38;98910.81;10372924;28;1597;-71
2023/08/25 14:35:23;;;;;;;;;;;22.00;75.40;;;21.54;63.20;98901.47;10373036;28;968;-72
2023/08/25 14:40:18;;;;;;;;;;;22.00;75.50;;;21.81;62.49;98903.06;10373467;28;1991;-72
2023/08/25 14:45:14;;;;;;;;;;;22.10;75.30;;;21.66;63.01;98903.19;10372679;28;765;-72
2023/08/25 14:50:09;;;;;;;;;;;22.10;75.30;;;21.52;63.26;98892.75;10373727;28;898;-72
2023/08/25 14:55:05;;;;;;;;;;;22.00;75.50;;;21.46;63.45;98895.88;10372308;28;927;-71
2023/08/25 15:00:03;;;;;;;;;;;22.00;75.50;;;21.43;63.55;98898.72;10371951;28;1966;-72
2023/08/25 15:04:58;;;;;;;;;;;22.00;75.50;;;21.42;63.34;98899.69;10371430;28;869;-70
2023/08/25 15:09:54;;;;;;;;;;;22.00;75.50;;;21.44;63.31;98893.31;10372469;28;831;-72
2023/08/25 15:14:50;;;;;;;;;;;22.00;75.60;;;21.50;63.32;98884.06;10371465;28;942;-71
2023/08/25 15:19:45;;;;;;;;;;;22.00;75.60;;;21.90;62.31;98881.13;10371839;28;1963;-72
2023/08/25 15:24:40;;;;;;;;;;;22.10;75.30;;;22.04;61.99;98886.28;10371291;28;810;-72
2023/08/25 15:29:36;;;;;;;;;;;22.20;75.20;;;22.05;62.15;98880.00;10370935;28;1084;-72
2023/08/25 15:34:31;;;;;;;;;;;22.20;75.30;;;21.94;62.31;98879.97;10370384;28;771;-72
2023/08/25 15:39:27;;;;;;;;;;;22.20;75.30;;;21.78;62.72;98885.56;10370489;28;1914;-70
2023/08/25 15:44:22;;;;;;;;;;;22.20;75.50;;;21.71;63.04;98875.50;10370852;28;859;-70
2023/08/25 15:49:18;;;;;;;;;;;22.10;75.60;;;21.66;63.13;98887.28;10370771;28;761;-71
2023/08/25 15:54:13;;;;;;;;;;;22.10;75.70;;;21.62;63.34;98877.03;10369987;28;827;-70
2023/08/25 15:59:08;;;;;;;;;;;22.10;75.80;;;21.62;63.24;98879.69;10370541;28;1906;-71
2023/08/25 16:04:04;;;;;;;;;;;22.10;75.80;;;21.61;63.20;98888.59;10370063;28;838;-71
2023/08/25 16:08:59;;;;;;;;;;;22.10;75.80;;;21.58;63.44;98889.66;10369511;28;847;-70
2023/08/25 16:13:54;;;;;;;;;;;22.10;75.90;;;21.55;63.33;98879.28;10369623;28;870;-70
2023/08/25 16:18:50;;;;;;;;;;;22.10;75.90;;;21.55;63.60;98891.69;10369183;28;1980;-70
2023/08/25 16:23:45;;;;;;;;;;;22.10;76.10;;;21.51;63.68;98885.78;10369511;28;855;-70
2023/08/25 16:28:41;;;;;;;;;;;22.10;76.20;;;21.48;63.76;98888.63;10368336;28;1144;-70
2023/08/25 16:33:36;;;;;;;;;;;22.00;76.10;;;21.47;63.63;98897.53;10367758;28;1264;-70
2023/08/25 16:38:33;;;;;;;;;;;22.00;76.40;;;21.47;63.63;98881.63;10368205;28;873;-70
2023/08/25 16:43:28;;;;;;;;;;;22.00;77.10;;;21.47;63.74;98871.03;10368114;28;1875;-70
2023/08/25 16:48:24;;;;;;;;;;;22.00;76.70;;;21.47;63.71;98864.88;10368514;28;823;-70
2023/08/25 16:53:19;;;;;;;;;;;22.00;76.50;;;21.48;63.75;98856.81;10367691;28;769;-70
2023/08/25 16:58:14;;;;;;;;;;;22.00;76.60;;;21.50;63.63;98865.50;10367454;28;871;-71
2023/08/25 17:03:10;;;;;;;;;;;22.00;76.60;;;21.48;63.93;98879.81;10367304;28;1967;-70
2023/08/25 17:08:06;;;;;;;;;;;22.00;76.80;;;21.45;63.79;98879.09;10367855;28;791;-70
2023/08/25 17:13:02;;;;;;;;;;;22.00;76.80;;;21.43;64.09;98882.81;10366905;28;810;-70
2023/08/25 17:17:57;;;;;;;;;;;22.00;76.90;;;21.41;64.09;98890.03;10366824;28;934;-70
2023/08/25 17:22:53;;;;;;;;;;;21.90;76.70;;;21.38;64.15;98888.47;10366679;28;1905;-70
2023/08/25 17:27:48;;;;;;;;;;;22.00;76.70;;;21.37;64.19;98877.91;10366231;28;1442;-70
2023/08/25 17:32:44;;;;;;;;;;;22.00;77.00;;;21.37;64.25;98884.06;10366517;28;902;-70
2023/08/25 17:37:39;;;;;;;;;;;21.90;76.80;;;21.36;64.09;98871.78;10365792;28;843;-70
2023/08/25 17:42:35;;;;;;;;;;;21.90;76.70;;;21.36;64.10;98869.13;10366224;28;1982;-70
2023/08/25 17:47:30;;;;;;;;;;;21.90;76.80;;;21.35;64.17;98869.22;10366202;28;807;-70
2023/08/25 17:52:26;;;;;;;;;;;21.90;76.80;;;21.35;64.09;98887.78;10366646;28;788;-70
2023/08/25 17:57:21;;;;;;;;;;;21.90;76.70;;;21.33;64.09;98882.59;10366602;28;875;-70
2023/08/25 18:02:16;;;;;;;;;;;21.90;76.80;;;21.33;64.25;98885.25;10366036;28;1969;-70
2023/08/25 18:07:12;;;;;;;;;;;21.90;76.70;;;21.32;64.25;98896.81;10365734;28;858;-70
2023/08/25 18:12:07;;;;;;;;;;;21.90;76.80;;;21.31;64.32;98912.84;10366402;28;871;-70
2023/08/25 18:17:03;;;;;;;;;;;21.90;76.80;;;21.31;64.45;98894.28;10366233;28;815;-70
2023/08/25 18:22:00;;;;;;;;;;;21.90;76.90;;;21.30;64.15;98911.13;10365333;28;1969;-69
2023/08/25 18:26:55;;;;;;;;;;;21.90;76.90;;;21.30;64.37;98916.41;10366055;28;803;-70
2023/08/25 18:31:50;;;;;;;;;;;21.90;77.20;;;21.29;64.49;98909.44;10365634;28;1152;-70
2023/08/25 18:36:46;;;;;;;;;;;21.90;77.20;;;21.29;64.59;98902.31;10364697;28;1008;-70
2023/08/25 18:41:41;;;;;;;;;;;21.90;77.30;;;21.30;64.62;98911.13;10370787;28;1975;-70
2023/08/25 18:46:37;;;;;;;;;;;21.90;78.40;;;21.31;64.79;98920.78;10372648;28;941;-69
2023/08/25 18:51:32;;;;;;;;;;;21.90;77.60;;;21.30;64.66;98922.59;10372503;28;927;-70
2023/08/25 18:56:27;;;;;;;;;;;21.90;77.60;;;21.30;64.79;98927.03;10372286;28;894;-70
2023/08/25 19:01:23;;;;;;;;;;;21.90;77.60;;;21.29;64.90;98933.28;10371977;28;1918;-70
2023/08/25 19:06:18;;;;;;;;;;;21.90;77.40;;;21.29;64.83;98943.91;10371926;28;993;-71
2023/08/25 19:11:14;;;;;;;;;;;21.90;77.50;;;21.28;64.72;98952.81;10371673;28;941;-70
2023/08/25 19:16:09;;;;;;;;;;;21.90;77.40;;;21.27;64.76;98959.06;10371537;28;870;-70
2023/08/25 19:21:07;;;;;;;;;;;21.90;77.30;;;21.27;64.59;98956.41;10371289;28;1953;-70
2023/08/25 19:26:02;;;;;;;;;;;21.90;77.30;;;21.28;64.64;98974.00;10371084;28;851;-70
2023/08/25 19:30:57;;;;;;;;;;;21.90;77.30;;;21.27;64.79;98969.66;10370523;28;1468;-70
2023/08/25 19:35:53;;;;;;;;;;;21.90;77.40;;;21.26;65.16;98970.63;10370789;28;859;-71
2023/08/25 19:40:48;;;;;;;;;;;21.90;77.60;;;21.26;64.90;98973.28;10370826;28;1910;-70
2023/08/25 19:45:44;;;;;;;;;;;21.90;77.70;;;21.27;65.10;98972.31;10370408;28;861;-71
2023/08/25 19:50:39;;;;;;;;;;;21.90;77.60;;;21.26;64.84;98973.28;10369698;28;866;-70
2023/08/25 19:55:35;;;;;;;;;;;21.90;77.70;;;21.24;64.87;98968.06;10370683;28;834;-70
2023/08/25 20:00:30;;;;;;;;;;;21.90;77.50;;;21.24;64.91;99002.53;10370317;28;1906;-70
2023/08/25 20:05:25;;;;;;;;;;;21.90;77.30;;;21.24;64.75;98981.31;10370199;28;906;-70
2023/08/25 20:10:21;;;;;;;;;;;21.90;77.30;;;21.23;64.86;98982.28;10369514;28;923;-70
2023/08/25 20:15:18;;;;;;;;;;;21.90;77.30;;;21.22;64.74;98978.78;10369167;28;916;-70
2023/08/25 20:20:13;;;;;;;;;;;21.90;77.30;;;21.23;64.88;98977.81;10368928;28;1913;-70
2023/08/25 20:25:09;;;;;;;;;;;21.80;77.20;;;21.23;64.94;98974.34;10369409;28;827;-70
2023/08/25 20:30:06;;;;;;;;;;;21.80;77.20;;;21.23;64.78;98977.81;10368718;28;1109;-70
2023/08/25 20:35:01;;;;;;;;;;;21.90;77.30;;;21.22;64.73;98962.00;10368348;28;817;-70
2023/08/25 20:39:56;;;;;;;;;;;21.80;77.20;;;21.22;64.78;98976.13;10368746;28;1969;-70
2023/08/25 20:44:52;;;;;;;;;;;21.80;77.20;;;21.21;64.87;98976.22;10369267;28;959;-70
2023/08/25 20:49:47;;;;;;;;;;;21.80;77.20;;;21.21;64.76;98998.28;10367855;28;851;-70
2023/08/25 20:54:43;;;;;;;;;;;21.80;78.00;;;21.21;64.93;98998.28;10368353;28;956;-70
2023/08/25 20:59:38;;;;;;;;;;;21.80;77.10;;;21.22;64.69;99007.06;10367381;28;1906;-70
2023/08/25 21:04:34;;;;;;;;;;;21.80;77.10;;;21.21;64.72;99011.53;10367101;28;803;-70
2023/08/25 21:09:29;;;;;;;;;;;21.90;77.20;;;21.20;65.03;99003.72;10367238;28;909;-70
2023/08/25 21:14:25;;;;;;;;;;;21.80;77.10;;;21.21;64.77;99008.03;10367635;28;943;-70
2023/08/25 21:19:20;;;;;;;;;;;21.80;77.10;;;21.20;64.92;99006.34;10366183;28;1909;-72
2023/08/25 21:24:16;;;;;;;;;;;21.80;77.10;;;21.20;64.89;99004.53;10366791;28;906;-70
2023/08/25 21:29:11;;;;;;;;;;;21.80;77.00;;;21.20;64.89;99001.91;10366615;28;1722;-71
2023/08/25 21:34:07;;;;;;;;;;;21.80;77.10;;;21.20;64.71;99001.06;10348949;28;851;-71
2023/08/25 21:39:02;;;;;;;;;;;21.80;77.90;;;21.19;64.84;99005.47;10366490;28;1973;-71
2023/08/25 21:43:58;;;;;;;;;;;21.80;77.10;;;21.19;64.81;99002.84;10365616;28;1173;-71
2023/08/25 21:48:53;;;;;;;;;;;21.80;77.00;;;21.19;64.83;99025.84;10366403;28;827;-71
2023/08/25 21:53:49;;;;;;;;;;;21.80;76.90;;;21.20;64.55;99016.97;10366185;28;848;-71
2023/08/25 21:58:44;;;;;;;;;;;21.80;76.90;;;21.18;64.77;99014.41;10365986;28;883;-71
2023/08/25 22:03:40;;;;;;;;;;;21.80;76.90;;;21.19;64.76;99026.69;10366256;28;1901;-71
2023/08/25 22:08:35;;;;;;;;;;;21.80;76.90;;;21.19;64.73;99012.59;10365753;28;874;-71
2023/08/25 22:13:30;;;;;;;;;;;21.80;76.80;;;21.18;64.63;99014.41;10366521;28;870;-71
2023/08/25 22:18:26;;;;;;;;;;;21.80;76.90;;;21.19;64.71;99015.25;10374501;28;886;-71
2023/08/25 22:23:21;;;;;;;;;;;21.80;77.60;;;21.19;64.53;99017.88;10374194;28;1910;-71
2023/08/25 22:28:17;;;;;;;;;;;21.80;76.80;;;21.18;64.75;99017.06;10373986;28;1396;-71
2023/08/25 22:33:12;;;;;;;;;;;21.80;76.80;;;21.16;64.57;99013.66;10373226;28;949;-71
2023/08/25 22:38:07;;;;;;;;;;;21.80;76.80;;;21.18;64.56;99018.84;10373081;28;788;-71
2023/08/25 22:43:04;;;;;;;;;;;21.80;76.70;;;21.18;64.56;99013.56;10373559;28;1969;-71
2023/08/25 22:47:59;;;;;;;;;;;21.80;76.70;;;21.16;64.64;99012.81;10373997;28;853;-71